Time;durP1;ratioP1;P1;durP2;ratioP2;P2;SDS_P1;SDS_P2;PMS_P1;PMS_P2;Temp;Humidity;BMP_temperature;BMP_pressure;BME280_temperature;BME280_humidity;BME280_pressure;Samples;Min_cycle;Max_cycle;Signal;HPM_P1;HPM_P2
2021/05/04 01:43:33;;;;;;;9.50;1.30;;;7.00;99.90;;;;;;5285832;23;20064;-81
2021/05/04 01:46:00;;;;;;;5.47;1.17;;;7.00;99.90;;;;;;5080586;28;20095;-82
2021/05/04 01:48:26;;;;;;;5.25;1.70;;;7.00;99.90;;;;;;5079823;28;20044;-82
2021/05/04 01:50:53;;;;;;;3.78;1.02;;;7.00;99.90;;;;;;5079098;28;20045;-82
2021/05/04 01:53:20;;;;;;;3.15;0.70;;;7.00;99.90;;;;;;5076149;28;20090;-81
2021/05/04 01:55:47;;;;;;;2.63;0.65;;;6.90;99.90;;;;;;5075518;28;20041;-81
2021/05/04 01:58:13;;;;;;;2.40;0.57;;;6.90;99.90;;;;;;5075914;28;20053;-81
2021/05/04 02:00:41;;;;;;;2.70;0.57;;;6.90;99.90;;;;;;5074218;28;20045;-81
2021/05/04 02:03:07;;;;;;;3.38;0.90;;;6.90;99.90;;;;;;5073435;28;20060;-81
2021/05/04 02:05:34;;;;;;;2.42;0.63;;;6.90;99.90;;;;;;5070986;28;20045;-80
2021/05/04 02:08:00;;;;;;;4.15;0.73;;;6.80;99.90;;;;;;5070604;28;20370;-80
2021/05/04 02:10:28;;;;;;;1.77;0.40;;;6.70;99.90;;;;;;5069503;28;20079;-80
2021/05/04 02:12:54;;;;;;;8.55;0.80;;;6.70;99.90;;;;;;5067916;28;20045;-80
2021/05/04 02:15:20;;;;;;;1.77;0.50;;;6.70;99.90;;;;;;5069017;28;20045;-80
2021/05/04 02:17:48;;;;;;;2.63;0.50;;;6.60;99.90;;;;;;5068595;28;20048;-81
2021/05/04 02:20:14;;;;;;;2.08;0.70;;;6.60;99.90;;;;;;5069334;28;20044;-80
2021/05/04 02:22:41;;;;;;;2.70;0.55;;;6.60;99.90;;;;;;5068459;28;20078;-81
2021/05/04 02:25:09;;;;;;;2.00;0.50;;;6.60;99.90;;;;;;5068502;28;20045;-80
2021/05/04 02:27:35;;;;;;;5.63;0.60;;;6.50;99.90;;;;;;5067995;28;20052;-80
2021/05/04 02:30:02;;;;;;;4.10;0.60;;;6.50;99.90;;;;;;5067452;28;20343;-80
2021/05/04 02:32:32;;;;;;;4.63;1.23;;;6.50;99.90;;;;;;5067416;28;20045;-80
2021/05/04 02:34:59;;;;;;;5.25;1.35;;;6.40;99.90;;;;;;5066810;28;20045;-80
2021/05/04 02:37:25;;;;;;;;;;;6.40;99.90;;;;;;5066144;28;20053;-80
2021/05/04 02:39:52;;;;;;;;;;;6.30;99.90;;;;;;5067173;28;19927;-80
2021/05/04 02:42:18;;;;;;;;;;;6.30;99.90;;;;;;5066097;28;19928;-80
2021/05/04 02:44:44;;;;;;;;;;;6.30;99.90;;;;;;5064892;28;20264;-80
2021/05/04 02:47:10;;;;;;;;;;;6.20;99.90;;;;;;5064835;28;19921;-80
2021/05/04 02:49:37;;;;;;;;;;;6.20;99.90;;;;;;5064197;28;19920;-80
2021/05/04 02:52:04;;;;;;;;;;;6.20;99.90;;;;;;5062725;28;20353;-80
2021/05/04 02:54:31;;;;;;;;;;;6.20;99.90;;;;;;5062600;28;20356;-80
2021/05/04 02:56:57;;;;;;;;;;;6.10;99.90;;;;;;5064059;28;19928;-80
2021/05/04 02:59:23;;;;;;;;;;;6.10;99.90;;;;;;5063693;28;19925;-80
2021/05/04 03:01:49;;;;;;;;;;;6.10;99.90;;;;;;5062926;28;20338;-80
2021/05/04 03:04:16;;;;;;;;;;;6.10;99.90;;;;;;5064155;28;20256;-80
2021/05/04 03:06:42;;;;;;;;;;;6.20;99.90;;;;;;5064080;28;19928;-80
2021/05/04 03:09:09;;;;;;;;;;;6.10;99.90;;;;;;5063962;28;19943;-80
2021/05/04 03:11:35;;;;;;;;;;;6.10;99.90;;;;;;5065088;28;19921;-80
2021/05/04 03:14:02;;;;;;;;;;;6.10;99.90;;;;;;5067403;28;20256;-81
2021/05/04 03:16:28;;;;;;;;;;;6.10;99.90;;;;;;5069718;28;19928;-81
2021/05/04 03:18:54;;;;;;;;;;;6.10;99.90;;;;;;5067234;28;20261;-81
2021/05/04 03:21:20;;;;;;;;;;;6.10;99.90;;;;;;5065820;28;19932;-80
2021/05/04 03:23:47;;;;;;;;;;;6.10;99.90;;;;;;5064533;28;19920;-80
2021/05/04 03:26:14;;;;;;;;;;;6.00;99.90;;;;;;5066113;28;19932;-80
2021/05/04 03:28:41;;;;;;;;;;;6.00;99.90;;;;;;5066832;28;19928;-80
2021/05/04 03:31:07;;;;;;;;;;;6.00;99.90;;;;;;5070482;28;19921;-81
2021/05/04 03:33:33;;;;;;;;;;;6.00;99.90;;;;;;5070576;28;19947;-81
2021/05/04 03:36:00;;;;;;;;;;;6.00;99.90;;;;;;5070170;28;19921;-80
2021/05/04 03:38:26;;;;;;;;;;;6.00;99.90;;;;;;5069183;28;19976;-81
2021/05/04 03:40:52;;;;;;;;;;;5.90;99.90;;;;;;5068562;28;19920;-80
2021/05/04 03:43:19;;;;;;;;;;;5.90;99.90;;;;;;5069751;28;19921;-81
2021/05/04 03:45:46;;;;;;;;;;;5.90;99.90;;;;;;5073076;28;19921;-81
2021/05/04 03:48:12;;;;;;;;;;;5.90;99.90;;;;;;5076923;28;19921;-81
2021/05/04 03:50:38;;;;;;;;;;;6.00;99.90;;;;;;5078066;28;19905;-82
2021/05/04 03:53:04;;;;;;;;;;;5.90;99.90;;;;;;5077404;28;19943;-81
2021/05/04 03:55:31;;;;;;;;;;;5.90;99.90;;;;;;5078178;28;19921;-82
2021/05/04 03:57:57;;;;;;;;;;;5.90;99.90;;;;;;5078590;28;19926;-82
2021/05/04 04:00:24;;;;;;;;;;;6.00;99.90;;;;;;5078260;28;19924;-82
2021/05/04 04:02:51;;;;;;;;;;;6.00;99.90;;;;;;5077966;28;19940;-82
2021/05/04 04:05:17;;;;;;;;;;;6.00;99.90;;;;;;5077568;28;19951;-82
2021/05/04 04:07:44;;;;;;;;;;;5.90;99.90;;;;;;5078085;28;19924;-82
2021/05/04 04:10:11;;;;;;;;;;;5.90;99.90;;;;;;5078501;28;19928;-82
2021/05/04 04:12:38;;;;;;;;;;;6.00;99.90;;;;;;5078975;28;19928;-82
2021/05/04 04:15:04;;;;;;;;;;;6.00;99.90;;;;;;5079428;28;19904;-82
2021/05/04 04:38:14;;;;;;;;;;;6.00;99.90;;;;;;5211720;23;20353;-79
2021/05/04 06:47:58;;;;;;;;;;;6.40;99.90;;;;;;6067796;23;19919;-82
2021/05/04 08:06:52;;;;;;;;;;;7.30;99.90;;;;;;5160350;23;19928;-81
2021/05/04 08:09:18;;;;;;;;;;;7.90;99.90;;;;;;5079437;28;19926;-81
2021/05/04 08:11:45;;;;;;;;;;;5.90;99.90;;;;;;5079223;28;19924;-81
2021/05/04 08:14:11;;;;;;;;;;;6.20;99.90;;;;;;5079087;28;19911;-81
2021/05/04 08:16:38;;;;;;;;;;;6.40;99.90;;;;;;5079073;28;19911;-81
2021/05/04 08:19:05;;;;;;;;;;;6.60;99.90;;;;;;5078920;28;19921;-81
2021/05/04 08:21:34;;;;;;;;;;;5.80;99.90;;;;;;5079210;28;19935;-81
2021/05/04 08:24:01;;;;;;;;;;;7.10;99.90;;;;;;5078949;28;19904;-81
2021/05/04 08:26:28;;;;;;;;;;;7.70;99.90;;;;;;5078784;28;19905;-81
2021/05/04 08:28:54;;;;;;;;;;;7.90;99.90;;;;;;5078662;28;19920;-81
2021/05/04 08:31:21;;;;;;;;;;;6.00;99.90;;;;;;5078286;28;19928;-81
2021/05/04 08:33:47;;;;;;;;;;;7.50;99.90;;;;;;5078693;28;19904;-80
2021/05/04 08:36:13;;;;;;;;;;;7.80;99.90;;;;;;5078082;28;19931;-81
2021/05/04 08:38:39;;;;;;;;;;;7.80;99.90;;;;;;5078510;28;19921;-81
2021/05/04 08:41:08;;;;;;;;;;;7.90;99.90;;;;;;5077436;28;19920;-80
2021/05/04 08:43:34;;;;;;;;;;;7.90;99.90;;;;;;5077650;28;19987;-80
2021/05/04 08:46:00;;;;;;;;;;;7.90;99.90;;;;;;5076901;28;19921;-81
2021/05/04 08:48:27;;;;;;;;;;;7.90;99.90;;;;;;5077388;28;19921;-81
2021/05/04 08:50:54;;;;;;;;;;;7.90;99.90;;;;;;5076970;28;19912;-81
2021/05/04 08:53:20;;;;;;;;;;;8.00;99.90;;;;;;5076078;28;19912;-80
2021/05/04 08:55:46;;;;;;;;;;;8.00;99.90;;;;;;5076238;28;19931;-81
2021/05/04 08:58:13;;;;;;;;;;;8.00;99.90;;;;;;5077490;28;19920;-81
2021/05/04 09:00:39;;;;;;;;;;;8.00;99.90;;;;;;5074991;28;19927;-80
2021/05/04 09:03:08;;;;;;;;;;;7.90;99.90;;;;;;5071149;28;19932;-80
2021/05/04 09:05:38;;;;;;;;;;;7.90;99.90;;;;;;5073601;28;19924;-80
2021/05/04 09:08:07;;;;;;;;;;;7.90;99.90;;;;;;5072819;28;20348;-80
2021/05/04 09:10:38;;;;;;;;;;;8.00;99.90;;;;;;5073069;28;19920;-80
2021/05/04 09:13:16;;;;;;;;;;;8.00;99.90;;;;;;5074191;28;19948;-80
2021/05/04 09:16:05;;;;;;;;;;;8.00;99.90;;;;;;5074327;28;19921;-80
2021/05/04 09:18:41;;;;;;;;;;;8.10;99.90;;;;;;5074838;28;19921;-81
2021/05/04 09:21:09;;;;;;;;;;;8.20;99.90;;;;;;5073416;28;19931;-80
2021/05/04 09:23:35;;;;;;;;;;;8.20;99.90;;;;;;5076216;28;19925;-80
2021/05/04 09:26:01;;;;;;;;;;;8.30;99.90;;;;;;5077648;28;19905;-80
2021/05/04 09:28:29;;;;;;;;;;;8.20;99.90;;;;;;5078396;28;19912;-80
2021/05/04 09:30:56;;;;;;;;;;;8.30;99.90;;;;;;5077819;28;19917;-80
2021/05/04 09:33:27;;;;;;;;;;;8.40;99.90;;;;;;5078083;28;19927;-80
2021/05/04 09:35:53;;;;;;;;;;;8.40;99.90;;;;;;5077081;28;19927;-81
2021/05/04 09:38:20;;;;;;;;;;;8.40;99.90;;;;;;5077200;28;19921;-81
2021/05/04 09:40:46;;;;;;;;;;;8.30;99.90;;;;;;5075717;28;19920;-80
2021/05/04 09:43:12;;;;;;;;;;;8.10;99.90;;;;;;5076486;28;19931;-80
2021/05/04 09:45:41;;;;;;;;;;;8.00;99.90;;;;;;5077497;28;19921;-80
2021/05/04 09:48:10;;;;;;;;;;;8.00;99.90;;;;;;5077934;28;19983;-80
2021/05/04 09:50:59;;;;;;;;;;;7.90;99.90;;;;;;5077027;28;19920;-80
2021/05/04 09:53:35;;;;;;;;;;;7.90;99.90;;;;;;5072539;28;19986;-80
2021/05/04 09:56:01;;;;;;;;;;;7.90;99.90;;;;;;5078556;28;20324;-81
2021/05/04 09:58:31;;;;;;;;;;;7.90;99.90;;;;;;5078498;28;19921;-81
2021/05/04 10:00:58;;;;;;;;;;;7.90;99.90;;;;;;5077542;28;19947;-80
2021/05/04 10:03:25;;;;;;;;;;;7.80;99.90;;;;;;5077868;28;19948;-80
2021/05/04 10:05:51;;;;;;;;;;;7.80;99.90;;;;;;5077597;28;19920;-80
2021/05/04 10:08:18;;;;;;;;;;;7.80;99.90;;;;;;5077647;28;19921;-81
2021/05/04 10:10:44;;;;;;;;;;;7.80;99.90;;;;;;5077748;28;19928;-80
2021/05/04 10:13:11;;;;;;;;;;;7.90;99.90;;;;;;5077784;28;19931;-80
2021/05/04 10:15:37;;;;;;;;;;;7.90;99.90;;;;;;5077943;28;19921;-81
2021/05/04 10:18:04;;;;;;;;;;;8.00;99.90;;;;;;5078386;28;19931;-80
2021/05/04 10:20:31;;;;;;;;;;;8.10;99.90;;;;;;5077029;28;19928;-80
2021/05/04 10:22:57;;;;;;;;;;;8.10;99.90;;;;;;5077028;28;19929;-80
2021/05/04 10:25:23;;;;;;;;;;;8.10;99.90;;;;;;5077801;28;19921;-81
2021/05/04 10:27:50;;;;;;;;;;;8.00;99.90;;;;;;5078567;28;20344;-81
2021/05/04 10:30:18;;;;;;;;;;;8.10;99.90;;;;;;5079044;28;19921;-81
2021/05/04 10:32:47;;;;;;;;;;;8.10;99.90;;;;;;5076565;28;19920;-80
2021/05/04 10:35:34;;;;;;;;;;;8.10;99.90;;;;;;5078237;28;19905;-80
2021/05/04 10:38:01;;;;;;;;;;;8.10;99.90;;;;;;5080942;28;19920;-81
2021/05/04 10:40:30;;;;;;;;;;;8.20;99.90;;;;;;5084264;23;19944;-78
2021/05/04 10:42:57;;;;;;;;;;;8.20;99.90;;;;;;5038333;28;19921;-78
2021/05/04 10:50:55;;;;;;;;;;;8.20;99.90;;;;;;4997359;28;19976;-78
2021/05/04 10:53:23;;;;;;;;;;;8.10;99.90;;;;;;4997303;28;19922;-79
2021/05/04 10:56:05;;;;;;;;;;;8.00;99.90;;;;;;5016723;28;19922;-78
2021/05/04 10:58:42;;;;;;;;;;;7.90;99.90;;;;;;5016903;28;20010;-78
2021/05/04 11:01:08;;;;;;;;;;;7.90;99.90;;;;;;5017768;28;19932;-79
2021/05/04 11:03:47;;;;;;;;;;;8.00;99.90;;;;;;5016873;28;19921;-78
2021/05/04 11:06:15;;;;;;;;;;;8.10;99.90;;;;;;5016451;28;20393;-78
2021/05/04 11:09:00;;;;;;;;;;;8.10;99.90;;;;;;5016931;28;20257;-78
2021/05/04 11:11:26;;;;;;;;;;;8.20;99.90;;;;;;5016379;28;19931;-78
2021/05/04 11:13:53;;;;;;;;;;;8.30;99.90;;;;;;5016656;28;19921;-78
2021/05/04 11:19:29;;;;;;;;;;;8.40;99.90;;;;;;5016437;28;19975;-78
2021/05/04 11:28:03;;;;;;;;;;;8.60;99.90;;;;;;5016264;28;20006;-75
2021/05/04 11:30:32;;;;;;;;;;;8.70;99.90;;;;;;5016046;28;19921;-75
2021/05/04 11:32:59;;;;;;;;;;;8.70;99.90;;;;;;5016127;28;20364;-75
2021/05/04 11:35:35;;;;;;;;;;;8.70;99.90;;;;;;5016174;28;19929;-76
2021/05/04 11:38:01;;;;;;;;;;;8.70;99.90;;;;;;5016173;28;19921;-76
2021/05/04 11:40:29;;;;;;;;;;;8.70;99.90;;;;;;5016259;28;20016;-76
2021/05/04 11:42:55;;;;;;;;;;;8.60;99.90;;;;;;5016134;28;19976;-76
2021/05/04 11:45:23;;;;;;;;;;;8.70;99.90;;;;;;5015650;28;19921;-75
2021/05/04 11:47:50;;;;;;;;;;;8.70;99.90;;;;;;5015661;28;19976;-75
2021/05/04 11:50:16;;;;;;;;;;;8.80;99.90;;;;;;5016071;28;19986;-75
2021/05/04 11:52:43;;;;;;;;;;;8.80;99.90;;;;;;5015774;28;19932;-75
2021/05/04 11:55:13;;;;;;;;;;;8.80;99.90;;;;;;5015734;28;20360;-75
2021/05/04 11:57:40;;;;;;;;;;;8.80;99.90;;;;;;5015810;28;19922;-75
2021/05/04 12:00:07;;;;;;;;;;;8.90;99.90;;;;;;5015706;28;20409;-75
2021/05/04 12:02:34;;;;;;;;;;;9.00;99.90;;;;;;5015626;28;19922;-75
2021/05/04 12:05:01;;;;;;;;;;;9.10;99.90;;;;;;5015542;28;19921;-75
2021/05/04 12:07:42;;;;;;;;;;;9.30;99.90;;;;;;5015478;28;19932;-75
2021/05/04 12:10:21;;;;;;;;;;;9.50;99.90;;;;;;5015620;28;20014;-75
2021/05/04 12:12:48;;;;;;;;;;;9.50;99.90;;;;;;5015388;28;19952;-75
2021/05/04 12:15:15;;;;;;;;;;;9.50;99.90;;;;;;5007480;28;19927;-75
2021/05/04 12:17:42;;;;;;;;;;;9.40;99.90;;;;;;5015475;28;19921;-75
2021/05/04 12:20:13;;;;;;;;;;;9.30;99.90;;;;;;5015759;28;19936;-75
2021/05/04 12:22:42;;;;;;;;;;;9.00;99.90;;;;;;5015692;28;19925;-76
2021/05/04 12:25:10;;;;;;;;;;;8.70;99.90;;;;;;5015297;28;19921;-76
2021/05/04 12:27:37;;;;;;;;;;;8.50;99.90;;;;;;5015273;28;19976;-76
2021/05/04 12:30:03;;;;;;;;;;;8.30;99.90;;;;;;5015615;28;19957;-76
2021/05/04 12:32:30;;;;;;;;;;;8.30;99.90;;;;;;5015489;28;19932;-75
2021/05/04 12:35:11;;;;;;;;;;;8.40;99.90;;;;;;5015439;28;19925;-76
2021/05/04 12:37:38;;;;;;;;;;;8.60;99.90;;;;;;5014737;28;19921;-76
2021/05/04 12:40:14;;;;;;;;;;;8.60;99.90;;;;;;5014585;28;19935;-75
2021/05/04 12:42:41;;;;;;;;;;;8.50;99.90;;;;;;5015278;28;20228;-76
2021/05/04 12:45:07;;;;;;;;;;;8.20;99.90;;;;;;5015089;28;19921;-75
2021/05/04 12:47:34;;;;;;;;;;;8.10;99.90;;;;;;5015044;28;19925;-75
2021/05/04 12:50:00;;;;;;;;;;;8.10;99.90;;;;;;5014790;28;19975;-76
2021/05/04 12:52:27;;;;;;;;;;;8.10;99.90;;;;;;5014891;28;19929;-76
2021/05/04 12:54:54;;;;;;;;;;;8.20;99.90;;;;;;5014134;28;19926;-76
2021/05/04 12:57:20;;;;;;;;;;;8.30;99.90;;;;;;5015813;28;20008;-75
2021/05/04 12:59:47;;;;;;;;;;;8.40;99.90;;;;;;5019092;28;20338;-75
2021/05/04 13:02:20;;;;;;;;;;;8.40;99.90;;;;;;5018877;28;20243;-75
2021/05/04 13:04:48;;;;;;;;;;;8.50;99.90;;;;;;5018854;28;19936;-75
2021/05/04 13:07:24;;;;;;;;;;;8.50;99.90;;;;;;5018613;28;19929;-75
2021/05/04 13:09:58;;;;;;;;;;;8.50;99.90;;;;;;5018995;28;19969;-75
2021/05/04 13:12:37;;;;;;;;;;;8.30;99.90;;;;;;5018758;28;19922;-75
2021/05/04 13:15:13;;;;;;;;;;;8.20;99.90;;;;;;5018652;28;19925;-75
2021/05/04 13:17:59;;;;;;;;;;;8.10;99.90;;;;;;5023218;28;19932;-81
2021/05/04 13:29:39;;;;;;;;;;;8.40;99.90;;;;;;5090757;23;20280;-79
2021/05/04 13:32:09;;;;;;;;;;;8.50;99.90;;;;;;5074359;28;20273;-80
2021/05/04 13:34:50;;;;;;;;;;;8.60;99.90;;;;;;5069744;28;19932;-80
2021/05/04 13:37:19;;;;;;;;;;;8.50;99.90;;;;;;5067989;28;19921;-80
2021/05/04 13:48:00;;;;;;;;;;;10.70;99.90;;;;;;5068566;28;19960;-83
2021/05/04 13:50:27;;;;;;;;;;;8.50;99.90;;;;;;5077486;23;19928;-81
2021/05/04 13:52:53;;;;;;;;;;;8.50;99.90;;;;;;5063335;28;19931;-80
2021/05/04 13:55:20;;;;;;;;;;;8.60;99.90;;;;;;5067520;28;20011;-79
2021/05/04 13:57:49;;;;;;;;;;;8.70;99.90;;;;;;5066224;28;20281;-79
2021/05/04 14:00:20;;;;;;;;;;;8.80;99.90;;;;;;5069342;28;19921;-80
2021/05/04 14:02:53;;;;;;;;;;;8.80;99.90;;;;;;5282829;23;19925;-80
2021/05/04 14:05:34;;;;;;;;;;;8.70;99.90;;;;;;5039931;28;20357;-79
2021/05/04 14:25:08;;;;;;;;;;;8.80;99.90;;;;;;5038649;28;19936;-79
2021/05/04 14:27:36;;;;;;;;;;;8.70;99.90;;;;;;5036713;28;20345;-80
2021/05/04 14:30:04;;;;;;;;;;;8.60;99.90;;;;;;5038065;28;19921;-80
2021/05/04 14:32:30;;;;;;;;;;;8.60;99.90;;;;;;5038117;28;19924;-79
2021/05/04 14:34:59;;;;;;;;;;;8.50;99.90;;;;;;5037492;28;19921;-79
2021/05/04 14:37:28;;;;;;;;;;;8.50;99.90;;;;;;5039220;28;19978;-78
2021/05/04 14:40:03;;;;;;;;;;;8.40;99.90;;;;;;5037124;28;19925;-77
2021/05/04 14:45:56;;;;;;;;;;;8.50;99.90;;;;;;5040494;28;19918;-79
2021/05/04 14:59:44;;;;;;;;;;;8.60;99.90;;;;;;4975024;28;19930;-80
2021/05/04 15:02:13;;;;;;;;;;;8.70;99.90;;;;;;4977933;28;19922;-77
2021/05/04 15:04:42;;;;;;;;;;;8.80;99.90;;;;;;4976060;28;19922;-76
2021/05/04 15:07:09;;;;;;;;;;;8.90;99.90;;;;;;4976823;28;20006;-79
2021/05/04 15:09:35;;;;;;;;;;;9.00;99.90;;;;;;4975952;28;19922;-79
2021/05/04 15:12:03;;;;;;;;;;;9.00;99.90;;;;;;4975672;28;19928;-79
2021/05/04 15:14:38;;;;;;;;;;;9.00;99.90;;;;;;4975903;28;20347;-79
2021/05/04 15:17:10;;;;;;;;;;;8.90;99.90;;;;;;4975905;28;19977;-79
2021/05/04 15:22:22;;;;;;;;;;;8.60;99.90;;;;;;4975923;28;19933;-79
2021/05/04 15:24:48;;;;;;;;;;;8.50;99.90;;;;;;4975827;28;20421;-79
2021/05/04 15:27:14;;;;;;;;;;;8.50;99.90;;;;;;4975537;28;20262;-79
2021/05/04 15:29:41;;;;;;;;;;;8.40;99.90;;;;;;4987981;28;20342;-79
2021/05/04 15:32:19;;;;;;;;;;;8.30;99.90;;;;;;5035817;28;20348;-79
2021/05/04 15:34:46;;;;;;;;;;;8.20;99.90;;;;;;5036198;28;19963;-79
2021/05/04 15:37:13;;;;;;;;;;;8.10;99.90;;;;;;5035639;28;19928;-79
2021/05/04 15:39:39;;;;;;;;;;;8.00;99.90;;;;;;5035827;28;19921;-79
2021/05/04 15:42:06;;;;;;;;;;;7.90;99.90;;;;;;5035711;28;19927;-79
2021/05/04 15:44:33;;;;;;;;;;;7.90;99.90;;;;;;5035973;28;19935;-79
2021/05/04 15:47:13;;;;;;;;;;;7.80;99.90;;;;;;5035889;28;19931;-79
2021/05/04 15:49:43;;;;;;;;;;;7.80;99.90;;;;;;5035989;28;19975;-79
2021/05/04 16:00:54;;;;;;;;;;;7.80;99.90;;;;;;4975153;28;19918;-79
2021/05/04 16:03:25;;;;;;;;;;;7.80;99.90;;;;;;4974792;28;19926;-79
2021/05/04 16:08:42;;;;;;;;;;;7.40;99.90;;;;;;4974093;28;20013;-79
2021/05/04 16:11:08;;;;;;;;;;;7.20;99.90;;;;;;4973968;28;19976;-79
2021/05/04 16:13:35;;;;;;;;;;;7.10;99.90;;;;;;4974754;28;19987;-79
2021/05/04 16:16:01;;;;;;;;;;;7.00;99.90;;;;;;4974725;28;19961;-77
2021/05/04 16:18:28;;;;;;;;;;;7.00;99.90;;;;;;4974864;28;19969;-76
2021/05/04 16:23:41;;;;;;;;;;;7.00;99.90;;;;;;4974785;28;19918;-76
2021/05/04 16:26:21;;;;;;;;;;;7.00;99.90;;;;;;4974659;28;19929;-77
2021/05/04 16:28:50;;;;;;;;;;;7.00;99.90;;;;;;4974746;28;20366;-77
2021/05/04 16:31:17;;;;;;;;;;;7.00;99.90;;;;;;4974378;28;19922;-77
2021/05/04 16:33:43;;;;;;;;;;;7.00;99.90;;;;;;4982368;28;19926;-77
2021/05/04 16:36:10;;;;;;;;;;;6.90;99.90;;;;;;5034930;28;19924;-77
2021/05/04 16:38:36;;;;;;;;;;;7.00;99.90;;;;;;5034703;28;19928;-77
2021/05/04 16:41:03;;;;;;;;;;;7.00;99.90;;;;;;5034975;28;19921;-78
2021/05/04 16:43:30;;;;;;;;;;;7.00;99.90;;;;;;5034827;28;19939;-77
2021/05/04 16:46:00;;;;;;;;;;;7.10;99.90;;;;;;5035024;28;19921;-77
2021/05/04 16:48:26;;;;;;;;;;;7.20;99.90;;;;;;5034814;28;20055;-77
2021/05/04 16:50:52;;;;;;;;;;;7.20;99.90;;;;;;5035025;28;19928;-78
2021/05/04 16:53:19;;;;;;;;;;;7.20;99.90;;;;;;5035003;28;19986;-77
2021/05/04 16:55:45;;;;;;;;;;;7.30;99.90;;;;;;5034974;28;19921;-77
2021/05/04 16:58:12;;;;;;;;;;;7.30;99.90;;;;;;5034775;28;19921;-77
2021/05/04 17:00:39;;;;;;;;;;;7.30;99.90;;;;;;5034730;28;19931;-77
2021/05/04 17:03:06;;;;;;;;;;;7.40;99.90;;;;;;5034578;28;19921;-77
2021/05/04 17:05:34;;;;;;;;;;;7.40;99.90;;;;;;5034266;28;19955;-77
2021/05/04 17:08:03;;;;;;;;;;;7.50;99.90;;;;;;5034927;28;19925;-77
2021/05/04 17:10:30;;;;;;;;;;;7.60;99.90;;;;;;5034838;28;19924;-77
2021/05/04 17:12:57;;;;;;;;;;;7.70;99.90;;;;;;5034505;28;20425;-77
2021/05/04 17:15:26;;;;;;;;;;;7.80;99.90;;;;;;5034552;28;20059;-77
2021/05/04 17:17:52;;;;;;;;;;;7.90;99.90;;;;;;5034501;28;19921;-77
2021/05/04 17:20:19;;;;;;;;;;;8.00;99.90;;;;;;5034412;28;20303;-77
2021/05/04 17:22:45;;;;;;;;;;;8.00;99.90;;;;;;5034566;28;20231;-77
2021/05/04 17:25:11;;;;;;;;;;;8.00;99.90;;;;;;5034664;28;19921;-77
2021/05/04 17:27:38;;;;;;;;;;;8.00;99.90;;;;;;5034349;28;20234;-77
2021/05/04 17:30:05;;;;;;;;;;;8.10;99.90;;;;;;5034455;28;19932;-76
2021/05/04 17:32:32;;;;;;;;;;;8.10;99.90;;;;;;5034665;28;19921;-76
2021/05/04 17:34:59;;;;;;;;;;;8.10;99.90;;;;;;5034229;28;19920;-76
2021/05/04 17:37:26;;;;;;;;;;;8.20;99.90;;;;;;5031941;28;19967;-76
2021/05/04 17:39:52;;;;;;;;;;;8.20;99.90;;;;;;5033680;28;19921;-77
2021/05/04 17:42:18;;;;;;;;;;;8.30;99.90;;;;;;5034573;28;19921;-77
2021/05/04 17:44:48;;;;;;;;;;;8.30;99.90;;;;;;5036720;28;19991;-76
2021/05/04 17:47:16;;;;;;;;;;;8.30;99.90;;;;;;5037444;28;20337;-77
2021/05/04 17:49:43;;;;;;;;;;;8.40;99.90;;;;;;5037845;28;20035;-76
2021/05/04 17:52:09;;;;;;;;;;;8.40;99.90;;;;;;5037065;28;19979;-76
2021/05/04 17:54:36;;;;;;;;;;;8.40;99.90;;;;;;5037458;28;19921;-76
2021/05/04 17:57:02;;;;;;;;;;;8.30;99.90;;;;;;5037429;28;19931;-77
2021/05/04 17:59:29;;;;;;;;;;;8.30;99.90;;;;;;5037601;28;19932;-76
2021/05/04 18:01:55;;;;;;;;;;;8.20;99.90;;;;;;5037568;28;19921;-76
2021/05/04 18:04:22;;;;;;;;;;;8.00;99.90;;;;;;5037894;28;19935;-76
2021/05/04 18:06:52;;;;;;;;;;;7.80;99.90;;;;;;5037691;28;19932;-76
2021/05/04 18:09:20;;;;;;;;;;;7.60;99.90;;;;;;5037804;28;19925;-76
2021/05/04 18:11:50;;;;;;;;;;;7.40;99.90;;;;;;5037387;28;19921;-76
2021/05/04 18:22:37;;;;;;;;;;;6.80;99.90;;;;;;5004013;28;19921;-77
2021/05/04 18:25:03;;;;;;;;;;;6.80;99.90;;;;;;5037269;28;20016;-77
2021/05/04 18:27:30;;;;;;;;;;;6.60;99.90;;;;;;5037215;28;19920;-77
2021/05/04 18:29:56;;;;;;;;;;;6.40;99.90;;;;;;5037322;28;20015;-77
2021/05/04 18:32:24;;;;;;;;;;;6.40;99.90;;;;;;5037206;28;19921;-77
2021/05/04 18:34:56;;;;;;;;;;;6.40;99.90;;;;;;5037131;28;19925;-78
2021/05/04 18:40:29;;;;;;;;;;;6.30;99.90;;;;;;5036995;28;19924;-78
2021/05/04 18:43:34;;;;;;;;;;;6.20;99.90;;;;;;5032013;28;19932;-79
2021/05/04 19:10:52;;;;;;;;;;;6.30;99.90;;;;;;4995634;28;19917;-77
2021/05/04 19:24:23;;;;;;;;;;;6.30;99.90;;;;;;5016539;28;19952;-77
2021/05/04 19:29:48;;;;;;;;;;;6.30;99.90;;;;;;5016332;28;19978;-77
2021/05/04 20:08:13;;;;;;;;;;;5.80;99.90;;;;;;5015643;28;19929;-76
2021/05/04 20:10:55;;;;;;;;;;;5.80;99.90;;;;;;5015817;28;19926;-76
2021/05/04 20:13:22;;;;;;;;;;;5.70;99.90;;;;;;5015763;28;20238;-76
2021/05/04 20:15:51;;;;;;;;;;;5.70;99.90;;;;;;5015669;28;19979;-76
2021/05/04 20:18:19;;;;;;;;;;;5.70;99.90;;;;;;5015482;28;19921;-76
2021/05/04 20:20:47;;;;;;;;;;;5.70;99.90;;;;;;5015675;28;20309;-76
2021/05/04 20:23:15;;;;;;;;;;;5.70;99.90;;;;;;5015406;28;20364;-76
2021/05/04 20:25:41;;;;;;;;;;;5.60;99.90;;;;;;5015593;28;20262;-76
2021/05/04 20:28:08;;;;;;;;;;;5.60;99.90;;;;;;5015478;28;19983;-76
2021/05/04 20:30:36;;;;;;;;;;;5.60;99.90;;;;;;5015252;28;19972;-76
2021/05/04 20:33:03;;;;;;;;;;;5.60;99.90;;;;;;5015505;28;19921;-77
2021/05/04 20:35:30;;;;;;;;;;;5.60;99.90;;;;;;5015554;28;19921;-76
2021/05/04 20:37:56;;;;;;;;;;;5.50;99.90;;;;;;5015431;28;19922;-76
2021/05/04 20:40:23;;;;;;;;;;;5.60;99.90;;;;;;5015322;28;19921;-76
2021/05/04 20:42:50;;;;;;;;;;;5.50;99.90;;;;;;5015437;28;19979;-77
2021/05/04 20:45:16;;;;;;;;;;;5.50;99.90;;;;;;5015003;28;19932;-76
2021/05/04 20:47:43;;;;;;;;;;;5.50;99.90;;;;;;5015286;28;19922;-76
2021/05/04 20:50:10;;;;;;;;;;;5.50;99.90;;;;;;5015216;28;19932;-76
2021/05/04 20:52:37;;;;;;;;;;;5.40;99.90;;;;;;5015006;28;19922;-76
2021/05/04 20:55:04;;;;;;;;;;;5.40;99.90;;;;;;5015045;28;19975;-76
2021/05/04 20:57:30;;;;;;;;;;;5.40;99.90;;;;;;5014952;28;20024;-76
2021/05/04 20:59:56;;;;;;;;;;;5.40;99.90;;;;;;5014936;28;19970;-76
2021/05/04 21:02:23;;;;;;;;;;;5.30;99.90;;;;;;5014873;28;19987;-75
2021/05/04 21:04:49;;;;;;;;;;;5.30;99.90;;;;;;5014952;28;19932;-76
2021/05/04 21:07:15;;;;;;;;;;;5.20;99.90;;;;;;5014771;28;19921;-76
2021/05/04 21:09:55;;;;;;;;;;;5.20;99.90;;;;;;5014939;28;19921;-76
2021/05/04 21:12:22;;;;;;;;;;;5.20;99.90;;;;;;5014975;28;20031;-76
2021/05/04 21:14:49;;;;;;;;;;;5.20;99.90;;;;;;5015082;28;19988;-76
2021/05/04 21:17:17;;;;;;;;;;;5.20;99.90;;;;;;5014720;28;20349;-76
2021/05/04 21:19:49;;;;;;;;;;;5.20;99.90;;;;;;5018113;28;19922;-76
2021/05/04 21:22:34;;;;;;;;;;;5.20;99.90;;;;;;5018588;28;20262;-76
2021/05/04 21:25:11;;;;;;;;;;;5.20;99.90;;;;;;5018449;28;20388;-76
2021/05/04 21:27:37;;;;;;;;;;;5.30;99.90;;;;;;5018441;28;19975;-76
2021/05/04 21:30:04;;;;;;;;;;;5.20;99.90;;;;;;5018294;28;19925;-76
2021/05/04 21:32:31;;;;;;;;;;;5.20;99.90;;;;;;5018463;28;20367;-76
2021/05/04 21:34:57;;;;;;;;;;;5.20;99.90;;;;;;5018502;28;19922;-76
2021/05/04 21:37:27;;;;;;;;;;;5.20;99.90;;;;;;5018477;28;19921;-76
2021/05/04 21:39:55;;;;;;;;;;;5.20;99.90;;;;;;5018491;28;19939;-76
2021/05/04 21:42:22;;;;;;;;;;;5.20;99.90;;;;;;5018233;28;20015;-76
2021/05/04 21:44:49;;;;;;;;;;;5.20;99.90;;;;;;5018084;28;19922;-76
2021/05/04 21:47:15;;;;;;;;;;;5.20;99.90;;;;;;5018097;28;19995;-76
2021/05/04 21:49:41;;;;;;;;;;;5.20;99.90;;;;;;5018423;28;19925;-76
2021/05/04 21:52:08;;;;;;;;;;;5.20;99.90;;;;;;5018232;28;19943;-76
2021/05/04 21:54:36;;;;;;;;;;;5.20;99.90;;;;;;5018231;28;20059;-76
2021/05/04 21:57:03;;;;;;;;;;;5.20;99.90;;;;;;5018140;28;19987;-76
2021/05/04 21:59:30;;;;;;;;;;;5.20;99.90;;;;;;5018061;28;20361;-76
2021/05/04 22:01:56;;;;;;;;;;;5.20;99.90;;;;;;5017543;28;20330;-76
2021/05/04 22:04:23;;;;;;;;;;;5.20;99.90;;;;;;5017809;28;19940;-76
2021/05/04 22:06:49;;;;;;;;;;;5.20;99.90;;;;;;5017617;28;19921;-76
2021/05/04 22:09:15;;;;;;;;;;;5.20;99.90;;;;;;5017626;28;19974;-76
2021/05/04 22:11:42;;;;;;;;;;;5.10;99.90;;;;;;5017650;28;20367;-76
2021/05/04 22:14:12;;;;;;;;;;;5.10;99.90;;;;;;5017821;28;20320;-76
2021/05/04 22:19:53;;;;;;;;;;;5.00;99.90;;;;;;5017465;28;19921;-76
2021/05/04 22:36:01;;;;;;;;;;;4.60;99.90;;;;;;4976830;28;19932;-76
2021/05/04 22:38:27;;;;;;;;;;;4.60;99.90;;;;;;4976781;28;20040;-76
2021/05/04 22:41:00;;;;;;;;;;;4.60;99.90;;;;;;4976455;28;19929;-76
2021/05/04 22:43:31;;;;;;;;;;;4.50;99.90;;;;;;4976498;28;19922;-76
2021/05/04 23:16:30;;;;;;;;;;;4.80;99.90;;;;;;4986819;28;20046;-80
2021/05/04 23:18:57;;;;;;;;;;;4.90;99.90;;;;;;4987583;28;19949;-80
2021/05/04 23:21:24;;;;;;;;;;;4.90;99.90;;;;;;4986404;28;19922;-80
2021/05/04 23:23:51;;;;;;;;;;;4.90;99.90;;;;;;4987530;28;19926;-80
2021/05/04 23:26:17;;;;;;;;;;;4.90;99.90;;;;;;4986844;28;19968;-80
2021/05/04 23:28:43;;;;;;;;;;;4.80;99.90;;;;;;4983374;28;19922;-80
2021/05/04 23:31:10;;;;;;;;;;;4.80;99.90;;;;;;4983445;28;19926;-80